Time;durP1;ratioP1;P1;durP2;ratioP2;P2;SDS_P1;SDS_P2;PMS_P1;PMS_P2;Temp;Humidity;BMP_temperature;BMP_pressure;BME280_temperature;BME280_humidity;BME280_pressure;Samples;Min_cycle;Max_cycle;Signal;HPM_P1;HPM_P2
2023/03/21 00:00:56;;;;;;;3.13;2.77;;;10.90;63.50;10.80;96622.00;;;;5072852;28;20203;-80
2023/03/21 00:03:23;;;;;;;2.47;2.27;;;10.90;63.40;10.80;96620.00;;;;5072724;28;20220;-79
2023/03/21 00:05:52;;;;;;;2.07;1.97;;;10.80;63.50;10.80;96614.00;;;;5059615;28;20200;-79
2023/03/21 00:08:20;;;;;;;2.70;2.50;;;10.80;63.50;10.80;96611.00;;;;5072404;28;20203;-78
2023/03/21 00:10:48;;;;;;;2.93;2.67;;;10.80;63.60;10.80;96611.00;;;;5052110;28;20215;-79
2023/03/21 00:13:18;;;;;;;2.60;2.40;;;10.80;63.70;10.70;96617.00;;;;5051770;28;20197;-79
2023/03/21 00:15:53;;;;;;;2.27;2.13;;;10.70;63.80;10.70;96610.00;;;;5058275;28;20706;-79
2023/03/21 00:18:21;;;;;;;2.50;2.30;;;10.70;63.80;10.70;96602.00;;;;5065961;28;20258;-79
2023/03/21 00:21:01;;;;;;;2.30;2.10;;;10.70;64.00;10.70;96604.00;;;;5071721;28;20216;-78
2023/03/21 00:23:30;;;;;;;3.60;2.80;;;10.70;64.40;10.70;96604.00;;;;5072492;28;20191;-79
2023/03/21 00:25:58;;;;;;;2.43;2.23;;;10.70;64.40;10.70;96600.00;;;;5062616;28;20201;-79
2023/03/21 00:28:27;;;;;;;2.37;2.17;;;10.70;64.50;10.70;96595.00;;;;5060871;28;20700;-79
2023/03/21 00:30:58;;;;;;;3.50;2.53;;;10.70;64.60;10.80;96597.00;;;;5063129;28;20200;-80
2023/03/21 00:33:25;;;;;;;2.70;2.50;;;10.70;64.70;10.80;96596.00;;;;5061223;28;20214;-78
2023/03/21 00:35:54;;;;;;;2.50;2.30;;;10.70;64.70;10.80;96598.00;;;;5056590;28;20299;-79
2023/03/21 00:38:22;;;;;;;2.60;2.40;;;10.70;64.80;10.80;96592.00;;;;5073006;28;20196;-79
2023/03/21 00:40:50;;;;;;;2.20;2.00;;;10.80;65.00;10.80;96590.00;;;;5064769;28;20859;-78
2023/03/21 00:43:22;;;;;;;2.13;1.90;;;10.80;65.10;10.90;96591.00;;;;5070605;28;20271;-79
2023/03/21 00:45:51;;;;;;;2.00;1.87;;;10.80;65.20;10.90;96591.00;;;;5057541;28;20196;-79
2023/03/21 00:48:19;;;;;;;2.50;2.30;;;10.80;65.20;11.00;96592.00;;;;5072876;28;20291;-78
2023/03/21 00:50:47;;;;;;;2.37;2.20;;;10.80;65.30;11.00;96588.00;;;;5053135;28;20772;-79
2023/03/21 00:53:15;;;;;;;2.60;2.40;;;10.90;65.40;11.00;96583.00;;;;5066427;28;20274;-79
2023/03/21 00:55:43;;;;;;;2.57;2.37;;;10.90;65.40;11.10;96574.00;;;;5067580;28;20685;-80
2023/03/21 00:58:10;;;;;;;2.40;2.20;;;10.90;65.40;11.10;96583.00;;;;5058431;28;20671;-78
2023/03/21 01:00:38;;;;;;;1.93;1.83;;;11.00;65.40;11.20;96572.00;;;;5063061;28;20679;-79
2023/03/21 01:03:10;;;;;;;2.30;2.10;;;11.00;65.50;11.20;96565.00;;;;5072303;28;20572;-78
2023/03/21 01:08:28;;;;;;;2.60;2.10;;;11.10;65.70;11.30;96567.00;;;;5069178;28;20194;-79
2023/03/21 01:10:57;;;;;;;2.30;2.10;;;11.20;65.70;11.40;96568.00;;;;5071278;28;20200;-79
2023/03/21 01:13:25;;;;;;;2.10;2.00;;;11.20;65.70;11.40;96561.00;;;;5069922;28;20192;-79
2023/03/21 01:15:55;;;;;;;2.23;2.10;;;11.20;65.70;11.40;96564.00;;;;5060731;28;20219;-79
2023/03/21 01:18:27;;;;;;;2.40;2.20;;;11.30;65.60;11.50;96572.00;;;;5069480;28;20279;-80
2023/03/21 01:20:57;;;;;;;2.30;2.17;;;11.30;65.50;11.50;96565.00;;;;5071863;28;20187;-78
2023/03/21 01:23:26;;;;;;;1.83;1.70;;;11.40;65.40;11.50;96568.00;;;;5070429;28;20200;-78
2023/03/21 01:25:55;;;;;;;2.00;1.50;;;11.40;65.50;11.60;96566.00;;;;5050551;28;20192;-78
2023/03/21 01:28:29;;;;;;;1.97;1.87;;;11.40;65.50;11.60;96557.00;;;;5051733;28;20200;-79
2023/03/21 01:30:56;;;;;;;1.90;1.80;;;11.50;65.40;11.70;96560.00;;;;5058405;28;20192;-78
2023/03/21 01:33:26;;;;;;;1.90;1.80;;;11.50;65.40;11.70;96564.00;;;;5059827;28;20189;-79
2023/03/21 01:35:53;;;;;;;1.80;1.70;;;11.60;65.50;11.70;96570.00;;;;5051471;28;20215;-78
2023/03/21 01:38:20;;;;;;;1.97;1.87;;;11.60;65.40;11.80;96567.00;;;;5057768;28;20220;-77
2023/03/21 01:40:50;;;;;;;2.20;2.00;;;11.60;65.40;11.80;96563.00;;;;5069626;28;20630;-79
2023/03/21 01:43:25;;;;;;;1.90;1.80;;;11.60;65.40;11.80;96563.00;;;;5051564;28;20204;-78
2023/03/21 01:46:36;;;;;;;1.63;1.53;;;11.70;65.50;11.80;96559.00;;;;5051806;28;20279;-78
2023/03/21 01:49:12;;;;;;;1.80;1.70;;;11.70;65.60;11.90;96562.00;;;;5060472;28;20250;-79
2023/03/21 01:51:46;;;;;;;2.00;1.90;;;11.80;65.40;11.90;96561.00;;;;5070982;28;20239;-79
2023/03/21 01:54:22;;;;;;;1.90;1.80;;;11.80;65.30;11.90;96554.00;;;;5072778;28;20627;-79
2023/03/21 01:56:50;;;;;;;5.13;2.03;;;11.80;65.30;12.00;96553.00;;;;5072051;28;20257;-79
2023/03/21 01:59:27;;;;;;;1.80;1.70;;;11.80;65.20;12.00;96559.00;;;;5068813;28;20255;-78
2023/03/21 02:02:00;;;;;;;1.90;1.80;;;11.80;65.30;12.00;96551.00;;;;5063878;28;20237;-79
2023/03/21 02:04:29;;;;;;;2.20;1.87;;;11.90;65.40;12.00;96553.00;;;;5073425;28;20249;-79
2023/03/21 02:07:02;;;;;;;2.00;1.80;;;11.90;66.10;12.10;96544.00;;;;5055301;28;20200;-79
2023/03/21 02:09:34;;;;;;;2.37;2.17;;;11.90;65.30;12.10;96547.00;;;;5074847;28;20212;-80
2023/03/21 02:12:02;;;;;;;3.50;2.00;;;12.00;65.30;12.10;96550.00;;;;5067731;28;20204;-79
2023/03/21 02:14:34;;;;;;;1.60;1.50;;;12.00;65.20;12.10;96543.00;;;;5060209;28;20201;-79
2023/03/21 02:17:12;;;;;;;1.97;1.87;;;12.00;65.10;12.20;96545.00;;;;5074456;28;20287;-79
2023/03/21 02:20:40;;;;;;;3.10;2.10;;;12.00;65.00;12.10;96540.00;;;;5071652;28;20277;-78
2023/03/21 02:23:46;;;;;;;2.17;1.70;;;12.00;65.10;12.10;96538.00;;;;5048966;28;20313;-78
2023/03/21 02:26:52;;;;;;;2.13;1.97;;;12.10;65.20;12.20;96538.00;;;;5056215;28;20196;-78
2023/03/21 02:30:18;;;;;;;1.90;1.63;;;12.10;65.30;12.20;96531.00;;;;5078808;28;20215;-79
2023/03/21 02:33:23;;;;;;;1.63;1.47;;;12.10;65.20;12.20;96535.00;;;;5078150;28;20242;-79
2023/03/21 02:36:11;;;;;;;2.33;2.03;;;12.10;64.90;12.20;96533.00;;;;5076692;28;20222;-79
2023/03/21 02:38:49;;;;;;;1.87;1.77;;;12.20;64.90;12.20;96540.00;;;;5071619;28;20282;-78
2023/03/21 02:41:25;;;;;;;2.10;2.00;;;12.10;64.90;12.20;96544.00;;;;5065692;28;20725;-78
2023/03/21 02:43:59;;;;;;;1.77;1.67;;;12.10;64.90;12.20;96538.00;;;;5065196;28;20200;-81
2023/03/21 02:46:33;;;;;;;1.80;1.70;;;12.20;65.10;12.20;96541.00;;;;5065104;28;20275;-77
2023/03/21 02:49:10;;;;;;;1.70;1.60;;;12.20;65.10;12.30;96539.00;;;;5074289;28;20217;-79
2023/03/21 02:51:40;;;;;;;1.90;1.80;;;12.20;65.30;12.30;96542.00;;;;5074816;28;20210;-78
2023/03/21 02:54:13;;;;;;;2.77;1.77;;;12.20;65.20;12.30;96541.00;;;;5073038;28;20196;-78
2023/03/21 02:56:42;;;;;;;2.23;1.53;;;12.20;65.20;12.30;96548.00;;;;5065086;28;20220;-79
2023/03/21 02:59:10;;;;;;;1.80;1.70;;;12.20;65.10;12.30;96545.00;;;;5046251;28;20276;-79
2023/03/21 03:01:38;;;;;;;1.87;1.77;;;12.20;65.20;12.40;96536.00;;;;5073590;28;20199;-79
2023/03/21 03:04:17;;;;;;;1.97;1.87;;;12.20;65.10;12.40;96549.00;;;;5074765;28;20198;-78
2023/03/21 03:07:04;;;;;;;1.50;1.40;;;12.30;65.20;12.40;96534.00;;;;5073807;28;20203;-79
2023/03/21 03:09:50;;;;;;;2.07;1.87;;;12.30;65.20;12.40;96539.00;;;;5067883;28;20208;-79
2023/03/21 03:12:30;;;;;;;1.70;1.60;;;12.30;65.20;12.40;96539.00;;;;5062216;28;20224;-79
2023/03/21 03:15:16;;;;;;;1.80;1.70;;;12.30;65.20;12.40;96532.00;;;;5054836;28;20219;-78
2023/03/21 03:17:54;;;;;;;1.93;1.80;;;12.30;65.20;12.50;96529.00;;;;5067634;28;20196;-79
2023/03/21 03:20:30;;;;;;;2.37;2.17;;;12.40;65.30;12.50;96523.00;;;;5073073;28;20248;-79
2023/03/21 03:23:11;;;;;;;3.13;2.23;;;12.40;65.20;12.50;96523.00;;;;5073227;28;20200;-78
2023/03/21 03:25:48;;;;;;;2.37;2.17;;;12.40;65.20;12.50;96524.00;;;;5059947;28;20200;-79
2023/03/21 03:28:23;;;;;;;2.50;2.30;;;12.40;65.20;12.50;96522.00;;;;5070475;28;20210;-79
2023/03/21 03:30:53;;;;;;;2.40;2.20;;;12.40;65.10;12.50;96531.00;;;;5061295;28;20649;-80
2023/03/21 03:33:22;;;;;;;2.70;2.40;;;12.40;65.10;12.50;96529.00;;;;5073853;28;20191;-79
2023/03/21 03:35:52;;;;;;;2.03;1.93;;;12.40;65.10;12.60;96532.00;;;;5062623;28;20258;-80
2023/03/21 03:38:22;;;;;;;2.30;2.10;;;12.40;65.10;12.60;96528.00;;;;5062223;28;20196;-78
2023/03/21 03:40:57;;;;;;;1.67;1.57;;;12.50;65.10;12.60;96527.00;;;;5055129;28;20300;-78
2023/03/21 03:43:34;;;;;;;1.90;1.80;;;12.50;65.20;12.60;96523.00;;;;5061052;28;20641;-79
2023/03/21 03:46:12;;;;;;;1.77;1.67;;;12.50;65.10;12.60;96524.00;;;;5072808;28;20660;-79
2023/03/21 03:48:47;;;;;;;2.23;2.13;;;12.50;65.10;12.70;96519.00;;;;5072478;28;20218;-79
2023/03/21 03:51:21;;;;;;;2.10;1.90;;;12.50;65.10;12.70;96520.00;;;;5072661;28;20203;-78
2023/03/21 03:53:55;;;;;;;1.50;1.40;;;12.50;65.10;12.70;96518.00;;;;5072958;28;20286;-79
2023/03/21 03:56:26;;;;;;;1.93;1.83;;;12.50;65.10;12.70;96521.00;;;;5067283;28;20715;-79
2023/03/21 03:58:54;;;;;;;1.87;1.77;;;12.50;65.00;12.70;96528.00;;;;5073920;28;20299;-80
2023/03/21 04:01:21;;;;;;;3.90;2.47;;;12.60;65.10;12.70;96524.00;;;;5064880;28;20196;-78
2023/03/21 04:03:49;;;;;;;2.10;1.90;;;12.60;65.10;12.70;96523.00;;;;5072074;28;20200;-78
2023/03/21 04:06:18;;;;;;;2.17;1.97;;;12.60;65.10;12.70;96520.00;;;;5072035;28;20275;-79
2023/03/21 04:08:46;;;;;;;2.03;1.93;;;12.60;65.10;12.70;96524.00;;;;5073628;28;20210;-79
2023/03/21 04:11:15;;;;;;;2.07;1.97;;;12.60;65.10;12.70;96521.00;;;;5067269;28;20196;-78
2023/03/21 04:13:44;;;;;;;1.83;1.70;;;12.60;65.00;12.70;96524.00;;;;5061499;28;20212;-79
2023/03/21 04:16:13;;;;;;;2.27;1.80;;;12.60;65.00;12.70;96523.00;;;;5062908;28;20711;-78
2023/03/21 04:18:40;;;;;;;2.20;1.90;;;12.60;65.00;12.80;96523.00;;;;5068073;28;20287;-79
2023/03/21 04:21:11;;;;;;;1.73;1.63;;;12.60;65.00;12.80;96532.00;;;;5067120;28;20193;-79
2023/03/21 04:23:39;;;;;;;1.77;1.67;;;12.60;65.10;12.80;96525.00;;;;5066906;28;20185;-79
2023/03/21 04:26:08;;;;;;;2.53;2.00;;;12.60;65.20;12.80;96530.00;;;;5067863;28;20207;-78
2023/03/21 04:28:36;;;;;;;2.40;2.20;;;12.60;65.20;12.80;96525.00;;;;5058212;28;20199;-79
2023/03/21 04:31:06;;;;;;;2.00;1.90;;;12.60;65.10;12.80;96526.00;;;;5062504;28;20196;-78
2023/03/21 04:33:37;;;;;;;2.10;2.00;;;12.60;65.20;12.80;96521.00;;;;5069218;28;20649;-78
2023/03/21 04:36:08;;;;;;;2.50;2.30;;;12.70;65.20;12.80;96523.00;;;;5061220;28;20220;-79
2023/03/21 04:38:36;;;;;;;2.33;2.07;;;12.70;65.10;12.80;96523.00;;;;5052566;28;20210;-78
2023/03/21 04:41:04;;;;;;;2.00;1.90;;;12.70;65.20;12.80;96521.00;;;;5069287;28;20289;-79
2023/03/21 04:43:31;;;;;;;2.13;1.90;;;12.70;65.20;12.80;96520.00;;;;5070335;28;20288;-79
2023/03/21 04:45:59;;;;;;;1.90;1.80;;;12.70;65.10;12.80;96514.00;;;;5059164;28;20226;-78
2023/03/21 04:48:28;;;;;;;2.53;1.87;;;12.70;65.10;12.80;96520.00;;;;5072463;28;20191;-78
2023/03/21 04:50:55;;;;;;;1.93;1.83;;;12.70;65.00;12.80;96518.00;;;;5073504;28;20283;-78
2023/03/21 04:53:22;;;;;;;2.40;2.20;;;12.70;65.00;12.80;96509.00;;;;5059385;28;20683;-78
2023/03/21 04:55:49;;;;;;;2.43;2.23;;;12.70;65.00;12.80;96513.00;;;;5069225;28;20362;-79
2023/03/21 04:58:19;;;;;;;2.37;1.73;;;12.70;65.10;12.80;96509.00;;;;5073853;28;20199;-79
2023/03/21 05:00:46;;;;;;;2.43;1.77;;;12.70;65.10;12.80;96505.00;;;;5043113;28;20245;-78
2023/03/21 05:03:18;;;;;;;1.97;1.87;;;12.70;65.10;12.80;96512.00;;;;5071955;28;20259;-79
2023/03/21 05:05:47;;;;;;;2.80;2.60;;;12.70;65.00;12.80;96510.00;;;;5070496;28;20200;-79
2023/03/21 05:08:16;;;;;;;2.50;2.30;;;12.70;65.00;12.80;96508.00;;;;5067663;28;20203;-78
2023/03/21 05:10:43;;;;;;;2.27;2.17;;;12.70;65.00;12.80;96521.00;;;;5067784;28;20729;-78
2023/03/21 05:13:10;;;;;;;2.30;2.20;;;12.70;65.10;12.80;96515.00;;;;5070646;28;20196;-79
2023/03/21 05:15:38;;;;;;;2.60;2.40;;;12.70;65.20;12.80;96513.00;;;;5066199;28;20619;-78
2023/03/21 05:18:10;;;;;;;2.80;2.60;;;12.70;65.10;12.80;96519.00;;;;5036752;28;20219;-78
2023/03/21 05:20:41;;;;;;;2.60;2.40;;;12.70;65.10;12.80;96521.00;;;;5070879;28;20223;-79
2023/03/21 05:23:10;;;;;;;2.30;2.20;;;12.70;65.20;12.90;96517.00;;;;5071936;28;20188;-78
2023/03/21 05:25:38;;;;;;;2.77;2.57;;;12.70;65.30;12.90;96522.00;;;;5069126;28;20188;-78
2023/03/21 05:28:07;;;;;;;2.73;2.50;;;12.70;65.30;12.90;96524.00;;;;5059085;28;20230;-79
2023/03/21 05:30:35;;;;;;;4.37;2.10;;;12.70;65.30;12.90;96528.00;;;;5056584;28;20213;-79
2023/03/21 05:33:02;;;;;;;2.20;2.00;;;12.70;65.30;12.90;96533.00;;;;5065255;28;20200;-79
2023/03/21 05:35:30;;;;;;;3.07;2.40;;;12.80;65.20;12.90;96521.00;;;;5061769;28;20239;-80
2023/03/21 05:37:58;;;;;;;2.77;1.97;;;12.80;65.30;13.00;96531.00;;;;5054521;28;20222;-79
2023/03/21 05:40:27;;;;;;;2.10;2.00;;;12.80;65.30;13.00;96528.00;;;;5074730;28;20231;-78
2023/03/21 05:42:55;;;;;;;2.50;2.40;;;12.80;65.40;13.00;96524.00;;;;5076759;28;20292;-79
2023/03/21 05:45:22;;;;;;;1.97;1.87;;;12.80;65.40;13.10;96532.00;;;;5078207;28;20199;-78
2023/03/21 05:47:50;;;;;;;2.53;2.00;;;12.80;65.40;13.10;96535.00;;;;5074865;28;20283;-79
2023/03/21 05:50:18;;;;;;;2.40;2.10;;;12.90;65.40;13.20;96541.00;;;;5078101;28;20219;-79
2023/03/21 05:52:45;;;;;;;2.50;2.30;;;12.90;65.50;13.20;96535.00;;;;5076881;28;20238;-78
2023/03/21 05:55:12;;;;;;;2.53;2.33;;;12.90;65.50;13.30;96542.00;;;;5077412;28;20635;-77
2023/03/21 05:57:41;;;;;;;2.40;2.20;;;12.90;65.50;13.30;96537.00;;;;5067000;28;20298;-79
2023/03/21 06:00:11;;;;;;;2.20;2.00;;;13.00;65.60;13.30;96541.00;;;;5060625;28;20226;-79
2023/03/21 06:02:38;;;;;;;3.73;2.37;;;13.00;65.70;13.40;96540.00;;;;5057633;28;20648;-79
2023/03/21 06:05:07;;;;;;;2.60;2.07;;;13.00;65.70;13.40;96541.00;;;;5069544;28;20197;-78
2023/03/21 06:07:35;;;;;;;3.17;2.33;;;13.00;65.60;13.40;96538.00;;;;5069015;28;20271;-79
2023/03/21 06:10:04;;;;;;;2.73;2.30;;;13.10;65.70;13.50;96536.00;;;;5074158;28;20247;-79
2023/03/21 06:12:32;;;;;;;3.03;2.10;;;13.10;65.60;13.50;96534.00;;;;5076979;28;20303;-80
2023/03/21 06:15:01;;;;;;;2.13;1.97;;;13.20;65.50;13.50;96548.00;;;;5075857;28;20196;-78
2023/03/21 06:17:28;;;;;;;4.00;2.23;;;13.20;65.50;13.60;96550.00;;;;5078023;28;20220;-79
2023/03/21 06:19:56;;;;;;;3.37;2.30;;;13.20;65.40;13.60;96545.00;;;;5064510;28;20216;-79
2023/03/21 06:22:23;;;;;;;3.23;2.97;;;13.30;65.40;13.60;96540.00;;;;5070097;28;20200;-79
2023/03/21 06:24:51;;;;;;;3.67;2.37;;;13.30;65.30;13.70;96547.00;;;;5070670;28;20223;-79
2023/03/21 06:27:19;;;;;;;2.90;2.70;;;13.40;65.30;13.70;96558.00;;;;5069201;28;20227;-80
2023/03/21 06:29:46;;;;;;;2.50;2.30;;;13.40;65.20;13.70;96546.00;;;;5077125;28;20216;-78
2023/03/21 06:32:16;;;;;;;2.70;2.50;;;13.40;65.20;13.80;96552.00;;;;5069174;28;20653;-78
2023/03/21 06:34:43;;;;;;;3.20;3.00;;;13.50;65.30;13.80;96551.00;;;;5077094;28;20735;-78
2023/03/21 06:37:11;;;;;;;3.83;3.07;;;13.50;65.30;13.90;96541.00;;;;5074648;28;20220;-78
2023/03/21 06:39:39;;;;;;;3.70;2.70;;;13.50;65.10;13.90;96546.00;;;;5076203;28;20307;-78
2023/03/21 06:42:06;;;;;;;2.70;2.50;;;13.50;65.00;13.90;96544.00;;;;5073613;28;20286;-80
2023/03/21 06:44:33;;;;;;;2.40;2.20;;;13.60;65.10;14.00;96549.00;;;;5070558;28;20232;-78
2023/03/21 06:47:01;;;;;;;3.63;2.10;;;13.60;65.20;14.10;96548.00;;;;5076747;28;20192;-79
2023/03/21 06:49:30;;;;;;;2.50;2.30;;;13.70;65.20;14.20;96557.00;;;;5077000;28;20223;-79
2023/03/21 06:51:57;;;;;;;2.30;2.20;;;13.70;65.10;14.20;96552.00;;;;5075714;28;20821;-78
2023/03/21 06:54:25;;;;;;;2.50;2.30;;;13.80;64.90;14.30;96552.00;;;;5072210;28;20251;-79
2023/03/21 06:56:53;;;;;;;2.50;2.30;;;13.80;64.50;14.30;96563.00;;;;5069497;28;20212;-78
2023/03/21 06:59:21;;;;;;;2.43;2.23;;;13.90;64.20;14.30;96559.00;;;;5076799;28;20208;-78
2023/03/21 07:01:48;;;;;;;3.17;2.93;;;13.90;64.00;14.40;96561.00;;;;5075244;28;20200;-79
2023/03/21 07:04:15;;;;;;;3.00;2.73;;;14.00;64.10;14.50;96564.00;;;;5074570;28;20289;-77
2023/03/21 07:06:44;;;;;;;3.23;2.90;;;14.00;64.20;14.50;96560.00;;;;5075340;28;20582;-78
2023/03/21 07:09:12;;;;;;;2.53;2.33;;;14.10;64.30;14.60;96559.00;;;;5073928;28;20654;-79
2023/03/21 07:11:40;;;;;;;2.47;2.27;;;14.10;64.10;14.70;96567.00;;;;5077570;28;20196;-77
2023/03/21 07:14:07;;;;;;;2.53;2.33;;;14.20;64.20;14.70;96562.00;;;;5062230;28;20198;-78
2023/03/21 07:16:34;;;;;;;3.03;2.73;;;14.30;64.10;14.80;96558.00;;;;5080720;28;20275;-79
2023/03/21 07:19:02;;;;;;;2.40;2.30;;;14.30;64.30;14.90;96554.00;;;;5076350;28;20302;-78
2023/03/21 07:21:30;;;;;;;2.70;2.50;;;14.40;64.30;15.00;96554.00;;;;5077495;28;20287;-78
2023/03/21 07:23:58;;;;;;;2.23;2.13;;;14.50;64.30;15.00;96560.00;;;;5073271;28;20196;-78
2023/03/21 07:26:26;;;;;;;3.70;2.40;;;14.50;64.20;15.10;96559.00;;;;5062974;28;20192;-78
2023/03/21 07:28:53;;;;;;;2.20;2.00;;;14.60;64.20;15.20;96560.00;;;;5077881;28;20236;-79
2023/03/21 07:31:24;;;;;;;4.97;2.50;;;14.70;64.10;15.30;96558.00;;;;5068602;28;20197;-79
2023/03/21 07:33:53;;;;;;;3.07;2.43;;;14.80;63.80;15.40;96560.00;;;;5071760;28;20196;-82
2023/03/21 07:36:20;;;;;;;2.63;2.43;;;14.80;63.60;15.40;96561.00;;;;5079357;28;20227;-78
2023/03/21 07:38:48;;;;;;;3.00;2.27;;;14.90;63.40;15.40;96560.00;;;;5081059;28;20290;-78
2023/03/21 07:41:17;;;;;;;3.00;2.70;;;14.90;62.90;15.50;96561.00;;;;5066905;28;20199;-78
2023/03/21 07:43:45;;;;;;;2.57;2.37;;;15.00;62.90;15.50;96561.00;;;;5075062;28;20203;-79
2023/03/21 07:46:13;;;;;;;2.67;2.47;;;15.00;63.10;15.60;96561.00;;;;5067434;28;20202;-80
2023/03/21 07:48:43;;;;;;;2.90;2.70;;;15.10;63.10;15.70;96562.00;;;;5063184;28;20234;-80
2023/03/21 07:51:11;;;;;;;2.80;2.37;;;15.10;62.90;15.70;96562.00;;;;5072318;28;20219;-79
2023/03/21 07:53:42;;;;;;;2.60;2.40;;;15.20;62.90;15.80;96570.00;;;;5058325;28;20193;-82
2023/03/21 07:56:11;;;;;;;2.73;2.53;;;15.30;63.10;15.90;96570.00;;;;5070621;28;20192;-79
2023/03/21 07:58:40;;;;;;;3.93;2.37;;;15.40;62.90;16.00;96567.00;;;;5062381;28;20204;-80
2023/03/21 08:01:08;;;;;;;2.73;2.53;;;15.40;62.40;16.00;96571.00;;;;5056370;28;20204;-81
2023/03/21 08:03:38;;;;;;;2.90;2.70;;;15.50;62.20;16.10;96571.00;;;;5059667;28;20200;-79
2023/03/21 08:06:07;;;;;;;3.27;2.70;;;15.50;62.30;16.20;96565.00;;;;5070474;28;20192;-84
2023/03/21 08:08:42;;;;;;;3.93;3.27;;;15.60;62.20;16.30;96565.00;;;;5067781;28;20204;-79
2023/03/21 08:11:11;;;;;;;4.07;2.37;;;15.60;61.80;16.30;96562.00;;;;5064946;28;20203;-79
2023/03/21 08:13:40;;;;;;;2.97;2.67;;;15.70;61.70;16.40;96564.00;;;;5061681;28;20700;-79
2023/03/21 08:16:09;;;;;;;2.80;2.60;;;15.70;61.30;16.40;96563.00;;;;5065199;28;20283;-79
2023/03/21 08:18:36;;;;;;;3.07;2.80;;;15.80;61.40;16.50;96565.00;;;;5059546;28;20715;-80
2023/03/21 08:21:04;;;;;;;3.23;3.00;;;15.80;61.50;16.60;96572.00;;;;5056968;28;20911;-79
2023/03/21 08:23:31;;;;;;;3.30;3.00;;;15.90;61.70;16.70;96563.00;;;;5073588;28;20283;-80
2023/03/21 08:26:00;;;;;;;3.20;3.00;;;16.00;61.60;16.80;96574.00;;;;5057609;28;20586;-80
2023/03/21 08:28:27;;;;;;;3.53;2.80;;;16.10;61.30;16.90;96573.00;;;;5067275;28;20230;-80
2023/03/21 08:30:56;;;;;;;3.53;2.80;;;16.20;61.10;16.90;96565.00;;;;5053291;28;20207;-79
2023/03/21 08:33:23;;;;;;;3.57;3.27;;;16.20;60.40;17.00;96570.00;;;;5051843;28;20532;-80
2023/03/21 08:35:51;;;;;;;3.00;2.70;;;16.30;60.20;17.10;96567.00;;;;5067797;28;20663;-79
2023/03/21 08:38:20;;;;;;;4.57;3.20;;;16.40;60.40;17.20;96573.00;;;;5063041;28;20243;-79
2023/03/21 08:40:47;;;;;;;3.53;3.10;;;16.50;60.00;17.20;96566.00;;;;5066415;28;20220;-80
2023/03/21 08:43:15;;;;;;;3.87;2.60;;;16.50;59.60;17.30;96567.00;;;;5073917;28;20231;-79
2023/03/21 08:45:42;;;;;;;3.00;2.80;;;16.60;59.50;17.30;96560.00;;;;5075290;28;20218;-80
2023/03/21 08:48:11;;;;;;;2.50;2.30;;;16.60;59.20;17.40;96566.00;;;;5069472;28;20224;-80
2023/03/21 08:50:39;;;;;;;3.17;2.43;;;16.70;59.00;17.40;96567.00;;;;5072985;28;20312;-80
2023/03/21 08:53:06;;;;;;;2.73;2.53;;;16.80;59.00;17.50;96562.00;;;;5076646;28;20720;-80
2023/03/21 08:55:34;;;;;;;2.63;2.43;;;16.80;59.10;17.50;96565.00;;;;5068517;28;20291;-79
2023/03/21 08:58:02;;;;;;;2.70;2.50;;;16.90;58.90;17.60;96562.00;;;;5074110;28;20712;-80
2023/03/21 09:00:31;;;;;;;2.60;2.40;;;16.90;58.70;17.60;96562.00;;;;5072854;28;20299;-80
2023/03/21 09:03:03;;;;;;;3.63;3.07;;;17.00;58.80;17.70;96568.00;;;;5060634;28;20196;-80
2023/03/21 09:05:33;;;;;;;2.47;2.30;;;17.00;58.60;17.80;96568.00;;;;5065863;28;20224;-80
2023/03/21 09:08:02;;;;;;;2.60;2.40;;;17.10;58.30;17.80;96563.00;;;;5075104;28;20223;-79
2023/03/21 09:10:30;;;;;;;2.90;2.70;;;17.10;58.30;17.90;96559.00;;;;5074733;28;20211;-79
2023/03/21 09:12:57;;;;;;;2.20;2.10;;;17.20;58.10;18.00;96569.00;;;;5079464;28;20207;-80
2023/03/21 09:15:27;;;;;;;2.10;2.00;;;17.30;57.90;18.00;96559.00;;;;5076199;28;20258;-81
2023/03/21 09:17:57;;;;;;;2.47;2.23;;;17.30;57.60;18.10;96555.00;;;;5077848;28;20215;-80
2023/03/21 09:20:31;;;;;;;2.83;2.40;;;17.40;57.30;18.10;96552.00;;;;5059830;28;20228;-80
2023/03/21 09:23:00;;;;;;;2.40;2.20;;;17.50;57.10;18.20;96556.00;;;;5075408;28;20218;-81
2023/03/21 09:25:29;;;;;;;2.37;2.17;;;17.50;57.00;18.20;96554.00;;;;5074416;28;20235;-80
2023/03/21 09:27:57;;;;;;;2.80;2.60;;;17.60;57.20;18.30;96559.00;;;;5086010;28;20231;-80
2023/03/21 09:30:25;;;;;;;3.33;2.40;;;17.60;57.10;18.40;96556.00;;;;5068402;28;20220;-79
2023/03/21 09:32:54;;;;;;;2.50;2.40;;;17.70;57.10;18.40;96550.00;;;;5068543;28;20628;-79
2023/03/21 09:35:23;;;;;;;3.03;2.73;;;17.80;57.00;18.50;96559.00;;;;5060439;28;20203;-80
2023/03/21 09:37:50;;;;;;;3.20;2.90;;;17.80;56.80;18.60;96552.00;;;;5070788;28;20612;-80
2023/03/21 09:40:30;;;;;;;4.10;2.70;;;17.90;56.70;18.70;96549.00;;;;5080458;28;20270;-80
2023/03/21 09:43:08;;;;;;;3.20;2.73;;;18.00;57.00;18.80;96551.00;;;;5062999;28;20188;-79
2023/03/21 09:45:44;;;;;;;2.40;2.20;;;18.10;57.00;19.00;96550.00;;;;5079452;28;20550;-79
2023/03/21 09:48:30;;;;;;;3.17;2.90;;;18.20;57.10;19.10;96546.00;;;;5080279;28;20233;-80
2023/03/21 09:50:58;;;;;;;2.83;2.63;;;18.30;56.80;19.20;96549.00;;;;5069214;28;20203;-80
2023/03/21 09:53:33;;;;;;;2.97;2.73;;;18.40;57.00;19.30;96550.00;;;;5058294;28;20197;-80
2023/03/21 09:56:04;;;;;;;2.87;2.60;;;18.50;56.70;19.40;96549.00;;;;5059845;28;20199;-80
2023/03/21 09:58:39;;;;;;;2.63;2.43;;;18.60;56.60;19.40;96552.00;;;;5077999;28;20219;-80
2023/03/21 10:01:21;;;;;;;2.60;2.40;;;18.70;56.20;19.50;96547.00;;;;5082583;28;20195;-80
2023/03/21 10:03:49;;;;;;;2.80;2.60;;;18.80;56.00;19.60;96548.00;;;;5072725;28;20200;-81
2023/03/21 10:06:17;;;;;;;3.23;2.93;;;19.00;56.60;19.80;96540.00;;;;5086861;28;20196;-82
2023/03/21 10:08:49;;;;;;;3.00;2.80;;;19.10;56.60;20.00;96538.00;;;;5086085;28;20200;-81
2023/03/21 10:11:26;;;;;;;2.97;2.73;;;19.30;56.50;20.30;96536.00;;;;5081648;28;20203;-80
2023/03/21 10:14:00;;;;;;;3.30;3.00;;;19.50;56.60;20.60;96542.00;;;;5090468;28;20211;-80
2023/03/21 10:16:32;;;;;;;3.93;2.73;;;19.70;56.30;20.80;96544.00;;;;5074023;28;20196;-80
2023/03/21 10:19:03;;;;;;;2.87;2.30;;;20.00;55.70;20.90;96537.00;;;;5076060;28;20261;-80
2023/03/21 10:21:31;;;;;;;3.00;2.53;;;20.20;55.70;21.10;96541.00;;;;5056653;28;20773;-80
2023/03/21 10:24:00;;;;;;;3.20;2.90;;;20.40;55.20;21.30;96535.00;;;;5077631;28;20289;-80
2023/03/21 10:26:31;;;;;;;2.73;2.50;;;20.60;54.70;21.40;96529.00;;;;5071849;28;20204;-80
2023/03/21 10:29:02;;;;;;;2.70;2.50;;;20.80;54.10;21.50;96524.00;;;;5070004;28;20634;-80
2023/03/21 10:31:31;;;;;;;2.33;2.13;;;20.90;54.20;21.60;96523.00;;;;5080928;28;20206;-80
2023/03/21 10:34:07;;;;;;;2.43;2.20;;;21.00;53.50;21.60;96525.00;;;;5074831;28;20279;-80
2023/03/21 10:36:35;;;;;;;1.90;1.80;;;21.10;53.20;21.70;96519.00;;;;5080323;28;20274;-80
2023/03/21 10:39:06;;;;;;;2.00;1.80;;;21.20;53.30;21.70;96522.00;;;;5067099;28;20443;-81
2023/03/21 10:41:34;;;;;;;1.87;1.77;;;21.30;53.20;21.80;96523.00;;;;5056078;28;20193;-81
2023/03/21 10:44:10;;;;;;;1.60;1.50;;;21.40;53.00;21.90;96523.00;;;;5061807;28;20684;-80
2023/03/21 10:46:38;;;;;;;1.40;1.30;;;21.50;52.20;22.00;96526.00;;;;5074864;28;20277;-79
2023/03/21 10:49:08;;;;;;;1.60;1.50;;;21.60;51.90;22.00;96523.00;;;;5076697;28;20303;-80
2023/03/21 10:51:39;;;;;;;1.57;1.47;;;21.70;51.50;21.90;96524.00;;;;5076406;28;20573;-80
2023/03/21 10:54:13;;;;;;;1.83;1.70;;;21.70;51.10;21.80;96521.00;;;;5082207;28;20283;-81
2023/03/21 10:56:56;;;;;;;1.50;1.40;;;21.70;50.30;21.70;96528.00;;;;5069475;28;20256;-81
2023/03/21 10:59:25;;;;;;;1.80;1.40;;;21.70;49.60;21.50;96521.00;;;;5072680;28;20227;-79
2023/03/21 11:01:57;;;;;;;2.17;1.70;;;21.60;49.90;21.40;96525.00;;;;5075602;28;20190;-81
2023/03/21 11:04:29;;;;;;;2.00;1.90;;;21.50;50.20;21.30;96523.00;;;;5076024;28;20203;-80
2023/03/21 11:07:00;;;;;;;1.63;1.53;;;21.40;50.00;21.20;96521.00;;;;5070887;28;20203;-80
2023/03/21 11:09:46;;;;;;;1.90;1.80;;;21.30;49.70;21.10;96516.00;;;;5070243;28;20317;-80
2023/03/21 11:12:18;;;;;;;2.70;1.90;;;21.20;49.50;21.00;96507.00;;;;5075635;28;20568;-80
2023/03/21 11:14:49;;;;;;;2.07;1.70;;;21.10;49.60;20.90;96504.00;;;;5075256;28;20222;-80